Time,TemperatureF,DewpointF,PressureIn,WindDirection,WindDirectionDegrees,WindSpeedMPH,WindSpeedGustMPH,Humidity,HourlyPrecipIn,Conditions,Clouds,dailyrainin,SolarRadiationWatts/m^2,SoftwareType,DateUTC
2013-06-25 00:11:00,49.0,48.0,-100.00,SW,232,2.0,6.0,97,0.04,,,0.12,0.000000,,2013-06-25 06:11:00,
2013-06-25 00:21:00,49.0,48.0,-100.00,SW,232,2.0,6.0,97,0.04,,,0.12,0.000000,,2013-06-25 06:21:00,
2013-06-25 00:33:00,49.0,48.0,-100.00,SW,232,2.0,6.0,97,0.04,,,0.12,0.000000,,2013-06-25 06:33:00,
2013-06-25 00:43:00,49.0,48.0,-100.00,SW,232,2.0,6.0,97,0.04,,,0.12,0.000000,,2013-06-25 06:43:00,
2013-06-25 01:11:00,48.0,47.0,-100.00,SSW,207,1.0,8.0,97,0.07,,,0.19,0.000000,,2013-06-25 07:11:00,
2013-06-25 01:22:00,48.0,47.0,-100.00,SSW,207,1.0,8.0,97,0.07,,,0.19,0.000000,,2013-06-25 07:22:00,
2013-06-25 01:33:00,48.0,47.0,-100.00,SSW,207,1.0,8.0,97,0.07,,,0.19,0.000000,,2013-06-25 07:33:00,
2013-06-25 01:43:00,48.0,47.0,-100.00,SSW,207,1.0,8.0,97,0.07,,,0.19,0.000000,,2013-06-25 07:43:00,
2013-06-25 02:21:00,48.0,47.0,-100.00,South,172,0.0,3.0,98,0.05,,,0.24,0.000000,,2013-06-25 08:21:00,
2013-06-25 02:33:00,48.0,47.0,-100.00,South,172,0.0,3.0,98,0.05,,,0.24,0.000000,,2013-06-25 08:33:00,
2013-06-25 02:43:00,48.0,47.0,-100.00,South,172,0.0,3.0,98,0.05,,,0.24,0.000000,,2013-06-25 08:43:00,
2013-06-25 03:12:00,48.0,47.0,-100.00,SSW,203,1.0,5.0,98,0.04,,,0.28,0.000000,,2013-06-25 09:12:00,
2013-06-25 03:21:00,48.0,47.0,-100.00,SSW,203,1.0,5.0,98,0.04,,,0.28,0.000000,,2013-06-25 09:21:00,
2013-06-25 03:33:00,48.0,47.0,-100.00,SSW,203,1.0,5.0,98,0.04,,,0.28,0.000000,,2013-06-25 09:33:00,
2013-06-25 03:43:00,48.0,47.0,-100.00,SSW,203,1.0,5.0,98,0.04,,,0.28,0.000000,,2013-06-25 09:43:00,
2013-06-25 04:11:00,48.0,48.0,-100.00,SE,135,0.0,1.0,99,0.01,,,0.29,0.000000,,2013-06-25 10:11:00,
2013-06-25 04:21:00,48.0,48.0,-100.00,SE,135,0.0,1.0,99,0.01,,,0.29,0.000000,,2013-06-25 10:21:00,
2013-06-25 04:33:00,48.0,48.0,-100.00,SE,135,0.0,1.0,99,0.01,,,0.29,0.000000,,2013-06-25 10:33:00,
2013-06-25 04:42:00,48.0,48.0,-100.00,SE,135,0.0,1.0,99,0.01,,,0.29,0.000000,,2013-06-25 10:42:00,
2013-06-25 05:11:00,48.0,48.0,-100.00,East,88,0.0,2.0,100,0.00,,,0.29,0.000000,,2013-06-25 11:11:00,
2013-06-25 05:22:00,48.0,48.0,-100.00,East,88,0.0,2.0,100,0.00,,,0.29,0.000000,,2013-06-25 11:22:00,
2013-06-25 05:34:00,48.0,48.0,-100.00,East,88,0.0,2.0,100,0.00,,,0.29,0.000000,,2013-06-25 11:34:00,
2013-06-25 05:43:00,48.0,48.0,-100.00,East,88,0.0,2.0,100,0.00,,,0.29,0.000000,,2013-06-25 11:43:00,
2013-06-25 06:11:00,48.0,48.0,-100.00,WSW,242,0.0,3.0,99,0.00,,,0.29,1.000000,,2013-06-25 12:11:00,
2013-06-25 06:22:00,48.0,48.0,-100.00,WSW,242,0.0,3.0,99,0.00,,,0.29,1.000000,,2013-06-25 12:22:00,
2013-06-25 06:33:00,48.0,48.0,-100.00,WSW,242,0.0,3.0,99,0.00,,,0.29,1.000000,,2013-06-25 12:33:00,
2013-06-25 06:43:00,48.0,48.0,-100.00,WSW,242,0.0,3.0,99,0.00,,,0.29,1.000000,,2013-06-25 12:43:00,
2013-06-25 07:11:00,48.0,47.0,-100.00,WSW,256,1.0,5.0,98,0.00,,,0.29,6.000000,,2013-06-25 13:11:00,
2013-06-25 07:22:00,48.0,47.0,-100.00,WSW,256,1.0,5.0,98,0.00,,,0.29,6.000000,,2013-06-25 13:22:00,
2013-06-25 07:34:00,48.0,47.0,-100.00,WSW,256,1.0,5.0,98,0.00,,,0.29,6.000000,,2013-06-25 13:34:00,
2013-06-25 07:42:00,48.0,47.0,-100.00,WSW,256,1.0,5.0,98,0.00,,,0.29,6.000000,,2013-06-25 13:42:00,
2013-06-25 08:22:00,50.0,49.0,-100.00,SSW,208,1.0,4.0,95,0.00,,,0.29,67.000000,,2013-06-25 14:22:00,
2013-06-25 08:34:00,50.0,49.0,-100.00,SSW,208,1.0,4.0,95,0.00,,,0.29,67.000000,,2013-06-25 14:34:00,
2013-06-25 08:42:00,50.0,49.0,-100.00,SSW,208,1.0,4.0,95,0.00,,,0.29,67.000000,,2013-06-25 14:42:00,
2013-06-25 09:22:00,51.0,48.0,-100.00,SW,226,3.0,7.0,89,0.00,,,0.29,139.000000,,2013-06-25 15:22:00,
2013-06-25 09:32:00,51.0,48.0,-100.00,SW,226,3.0,7.0,89,0.00,,,0.29,139.000000,,2013-06-25 15:32:00,
2013-06-25 09:44:00,51.0,48.0,-100.00,SW,226,3.0,7.0,89,0.00,,,0.29,139.000000,,2013-06-25 15:44:00,
2013-06-25 10:23:00,55.0,48.0,-100.00,WSW,249,4.0,9.0,77,0.00,,,0.29,329.000000,,2013-06-25 16:23:00,
2013-06-25 10:34:00,55.0,48.0,-100.00,WSW,249,4.0,9.0,77,0.00,,,0.29,329.000000,,2013-06-25 16:34:00,
2013-06-25 10:44:00,55.0,48.0,-100.00,WSW,249,4.0,9.0,77,0.00,,,0.29,329.000000,,2013-06-25 16:44:00,
2013-06-25 11:11:00,56.0,47.0,-100.00,West,263,3.0,8.0,73,0.00,,,0.29,236.000000,,2013-06-25 17:11:00,
2013-06-25 11:22:00,56.0,47.0,-100.00,West,263,3.0,8.0,73,0.00,,,0.29,236.000000,,2013-06-25 17:22:00,
2013-06-25 11:33:00,56.0,47.0,-100.00,West,263,3.0,8.0,73,0.00,,,0.29,236.000000,,2013-06-25 17:33:00,
2013-06-25 11:44:00,56.0,47.0,-100.00,West,263,3.0,8.0,73,0.00,,,0.29,236.000000,,2013-06-25 17:44:00,
2013-06-25 12:12:00,62.0,46.0,-100.00,SW,235,5.0,11.0,56,0.00,,,0.29,598.000000,,2013-06-25 18:12:00,
2013-06-25 12:22:00,62.0,46.0,-100.00,SW,235,5.0,11.0,56,0.00,,,0.29,598.000000,,2013-06-25 18:22:00,
2013-06-25 12:34:00,62.0,46.0,-100.00,SW,235,5.0,11.0,56,0.00,,,0.29,598.000000,,2013-06-25 18:34:00,
2013-06-25 12:44:00,62.0,46.0,-100.00,SW,235,5.0,11.0,56,0.00,,,0.29,598.000000,,2013-06-25 18:44:00,
2013-06-25 13:12:00,64.0,46.0,-100.00,SW,227,5.0,14.0,52,0.00,,,-99.99,756.000000,,2013-06-25 19:12:00,
2013-06-25 13:22:00,64.0,46.0,-100.00,SW,227,5.0,14.0,52,0.00,,,-99.99,756.000000,,2013-06-25 19:22:00,
2013-06-25 13:33:00,64.0,46.0,-100.00,SW,227,5.0,14.0,52,0.00,,,-99.99,756.000000,,2013-06-25 19:33:00,
2013-06-25 13:44:00,64.0,46.0,-100.00,SW,227,5.0,14.0,52,0.00,,,-99.99,756.000000,,2013-06-25 19:44:00,
2013-06-25 14:22:00,66.0,45.0,-100.00,SSW,208,7.0,16.0,46,0.00,,,0.29,904.000000,,2013-06-25 20:22:00,
2013-06-25 14:33:00,66.0,45.0,-100.00,SSW,208,7.0,16.0,46,0.00,,,0.29,904.000000,,2013-06-25 20:33:00,
2013-06-25 14:42:00,66.0,45.0,-100.00,SSW,208,7.0,16.0,46,0.00,,,0.29,904.000000,,2013-06-25 20:42:00,
2013-06-25 15:11:00,67.0,46.0,-100.00,SW,215,6.0,13.0,46,0.00,,,0.29,977.000000,,2013-06-25 21:11:00,
2013-06-25 15:22:00,67.0,46.0,-100.00,SW,215,6.0,13.0,46,0.00,,,0.29,977.000000,,2013-06-25 21:22:00,
2013-06-25 15:33:00,67.0,46.0,-100.00,SW,215,6.0,13.0,46,0.00,,,0.29,977.000000,,2013-06-25 21:33:00,
2013-06-25 15:43:00,67.0,46.0,-100.00,SW,215,6.0,13.0,46,0.00,,,0.29,977.000000,,2013-06-25 21:43:00,
2013-06-25 16:11:00,68.0,46.0,-100.00,SW,226,4.0,14.0,45,0.00,,,0.29,740.000000,,2013-06-25 22:11:00,
2013-06-25 16:22:00,68.0,46.0,-100.00,SW,226,4.0,14.0,45,0.00,,,0.29,740.000000,,2013-06-25 22:22:00,
2013-06-25 16:33:00,68.0,46.0,-100.00,SW,226,4.0,14.0,45,0.00,,,0.29,740.000000,,2013-06-25 22:33:00,
2013-06-25 16:42:00,68.0,46.0,-100.00,SW,226,4.0,14.0,45,0.00,,,0.29,740.000000,,2013-06-25 22:42:00,
2013-06-25 17:22:00,56.0,52.0,-100.00,NNE,20,0.0,10.0,88,0.06,,,0.35,176.000000,,2013-06-25 23:22:00,
2013-06-25 19:33:00,57.0,55.0,-100.00,NNW,335,1.0,6.0,93,0.01,,,0.34,51.000000,,2013-06-26 01:33:00,
2013-06-25 19:43:00,57.0,55.0,-100.00,NNW,335,1.0,6.0,93,0.01,,,0.34,51.000000,,2013-06-26 01:43:00,
2013-06-25 20:11:00,56.0,50.0,-100.00,WSW,254,3.0,9.0,80,0.00,,,0.33,39.000000,,2013-06-26 02:11:00,
2013-06-25 20:22:00,56.0,50.0,-100.00,WSW,254,3.0,9.0,80,0.00,,,0.33,39.000000,,2013-06-26 02:22:00,
2013-06-25 20:34:00,56.0,50.0,-100.00,WSW,254,3.0,9.0,80,0.00,,,0.33,39.000000,,2013-06-26 02:34:00,
2013-06-25 20:43:00,56.0,50.0,-100.00,WSW,254,3.0,9.0,80,0.00,,,0.33,39.000000,,2013-06-26 02:43:00,
2013-06-25 21:11:00,54.0,52.0,-100.00,ENE,77,0.0,7.0,93,0.00,,,0.33,12.000000,,2013-06-26 03:11:00,
2013-06-25 21:22:00,54.0,52.0,-100.00,ENE,77,0.0,7.0,93,0.00,,,0.33,12.000000,,2013-06-26 03:22:00,
2013-06-25 21:33:00,54.0,52.0,-100.00,ENE,77,0.0,7.0,93,0.00,,,0.33,12.000000,,2013-06-26 03:33:00,
2013-06-25 21:43:00,54.0,52.0,-100.00,ENE,77,0.0,7.0,93,0.00,,,0.33,12.000000,,2013-06-26 03:43:00,
2013-06-25 22:12:00,53.0,52.0,-100.00,SSE,150,0.0,3.0,95,0.00,,,0.32,1.000000,,2013-06-26 04:12:00,
2013-06-25 22:22:00,53.0,52.0,-100.00,SSE,150,0.0,3.0,95,0.00,,,0.32,1.000000,,2013-06-26 04:22:00,
2013-06-25 22:33:00,53.0,52.0,-100.00,SSE,150,0.0,3.0,95,0.00,,,0.32,1.000000,,2013-06-26 04:33:00,
2013-06-25 22:43:00,53.0,52.0,-100.00,SSE,150,0.0,3.0,95,0.00,,,0.32,1.000000,,2013-06-26 04:43:00,
2013-06-25 23:11:00,52.0,51.0,-100.00,NNW,334,0.0,0.0,98,0.00,,,0.28,0.000000,,2013-06-26 05:11:00,
2013-06-25 23:22:00,52.0,51.0,-100.00,NNW,334,0.0,0.0,98,0.00,,,0.28,0.000000,,2013-06-26 05:22:00,
2013-06-25 23:33:00,52.0,51.0,-100.00,NNW,334,0.0,0.0,98,0.00,,,0.28,0.000000,,2013-06-26 05:33:00,
2013-06-25 23:43:00,52.0,51.0,-100.00,NNW,334,0.0,0.0,98,0.00,,,0.28,0.000000,,2013-06-26 05:43:00,